Relevés horaires Semmerzake (Belgique)


Relevés horaires à Semmerzake - Vendredi 19 Avr. 2019
Heure UTC1 Température [°C] Vent [km/h] Hum. [%] Pres.4 [hPa] Visi. [Km] Nébu. [octa] Préc.5 [mm] Cond.
2m. Res. Ros. Dir.2 Vit. Moy. Raf.3
22:00 14.4 14.4 5.7 NE 5.6 -- 5.6 56 1028.2(0.9/3h) 20 -- -- --
21:00 15.6 15.6 6.2 NE 5.6 -- 9.3 53 1028(1.3/3h) 20 -- -- --
20:00 16.8 16.8 6.7 NE 5.6 -- 9.3 51 1027.9(1.3/3h) 20 -- -- --
19:00 18.7 18.7 7.1 N 3.7 -- 9.3 47 1027.2(0.8/3h) 20 -- -- --
18:00 20.9 20.9 6.7 N 5.6 -- 13.0 40 1026.7(0.2/3h) 18 -- -- --
17:00 22.7 22.7 5.3 ENE 3.7 -- 11.1 32 1026.4(-0.3/3h) 20 -- -- --
16:00 23.3 23.3 5.0 NE 5.6 -- 9.3 30 1026.2(-0.5/3h) 17 -- -- --
15:00 23.3 23.3 3.6 NE 5.6 -- 13.0 28 1026.4(-0.4/3h) 20 -- -- --
14:00 23.1 23.1 4.2 E 3.7 -- 13.0 29 1026.7(-0.4/3h) 20 -- -- --
13:00 23.3 23.3 6.2 E 5.6 -- 13.0 33 1026.9(-0.5/3h) 20 -- -- --
12:00 22.8 22.8 7.3 NE 7.4 -- 13.0 37 1026.9(-0.4/3h) 20 -- -- --
11:00 21.4 21.4 8.3 ENE 5.6 -- 11.1 43 1027.2(0.1/3h) 15 -- -- --
10:00 19.3 19.3 6.6 E 5.6 -- 9.3 44 1027.4(0.5/3h) 17 -- -- --
09:00 17.2 17.2 6.5 ENE 5.6 -- 9.3 49 1027.4(0.8/3h) 20 -- -- --
08:00 15.1 15.1 5.9 ENE 5.6 -- 9.3 54 1027.2(1.2/3h) 18 -- -- --
07:00 13.0 13 4.9 ENE 5.6 -- 9.3 58 1026.9(1.1/3h) 20 -- -- --
06:00 11.1 10.8 4.2 ENE 5.6 -- 9.3 62 1026.5(1.0/3h) 17 -- -- --
05:00 10.2 10.2 3.6 NNO 3.7 -- 7.4 64 1026(0.6/3h) 17 -- -- --
04:00 11.4 11.4 3.7 E 3.7 -- 7.4 59 1025.7(0.6/3h) 20 -- -- --
03:00 12.1 12.1 3.5 E 3.7 -- 9.3 56 1025.5(0.5/3h) 20 -- -- --
02:00 11.9 11.9 3.7 ENE 3.7 -- 9.3 57 1025.2(0.3/3h) 19 -- -- --
01:00 12.3 12.3 3.7 ENE 3.7 -- 9.3 56 1025(0.4/3h) 20 -- -- --
00:00 12.8 12.8 3.9 NE 3.7 -- 9.3 55 1025(0.7/3h) 20 -- -- --

1 Coordinated Universal Time. Actuellement il est 01:00 locale et 23:00 UTC.

2 Le vent souffle depuis la direction indiquée vers la direction oposée.

3 Les rafales max. sont disponible 40 min après l'heure du relevé.

4 Pour les stations d'altitude (plus de 600m) le géopotentiel du niveau le plus proche de la pression obligatoire est indiqué.

5 Les stations disposant d'un diffuseur peuvent indiquer "trace". Cela signifie que des précipitations ont touchés le sol mais que la quantité est inférieure à 0.1 mm.

Récapitulatif de la journée
Température [°C] Vent [km/h] Ensoleillement4 [h] Precipitations totale5 [mm] Pression [Hpa]
Min1 Max.2 Moy.3 Max. Min Max.
9.6 23.8 0 13.0 0 h 0 min 0 1025.0 1028.2

1 Température minimale relevée entre 18:00 UTC la veille et 18:00 UTC le jour donné.

2 Température maximale relevée entre 06:00 UTC le jour donné et 06:00 UTC le lendemain.

3 Vent moyen de la journée basé sur les relevés horaires.

4 Ensoleillement en heures relevé entre 06:00 UTC la veille et 06:00 UTC le jour donné.

5 Précipitations totales tombées entre 06:00 UTC la jour donné et 06:00 UTC le lendemain.

Graphiques horaires